General Aviation Weather

Text Reports

Enter one or more of the following location identifiers separated by a space:

Zip Code, Four-Character ICAO or Three-Character IATA airport codes.

METAR - Aviation Routine Weather Report
KCDA - Lyndonville, Vermont
Updated at 12:15 PM GMT on August 05, 2015 (8:15 AM EDT):
METAR KCDA 051215Z AUTO 00000KT 3/4SM BR OVC002 14/14 A2990 RMK AO2 VIS 1/2V3 T01400136
TAF - Terminal Area Forecast
KCDA - Lyndonville, Vermont
Updated at 12:15 PM GMT on August 05, 2015 (8:15 AM EDT):
No TAF is currently available for this location.
Decoded:
No decoded TAF is available.
PIREP - Pilot Weather Report
KCDA - Lyndonville, Vermont
Updated at 12:15 PM GMT on August 05, 2015 (8:15 AM EDT):
No PIREP is currently available for this location.
AIRMET - Airmens Meteorological Information
KCDA - Lyndonville, Vermont
Updated at 12:15 PM GMT on August 05, 2015 (8:15 AM EDT):
No AIRMET is currently available for this location.
SIGMET - Significant Meteorological Information
KCDA - Lyndonville, Vermont
Updated at 12:15 PM GMT on August 05, 2015 (8:15 AM EDT):
No SIGMET is currently available for this location.
NOTAM - Notice to Airmen
KCDA - Lyndonville, Vermont
Updated at 12:15 PM GMT on August 05, 2015 (8:15 AM EDT):
No NOTAM is currently available for this location.
Forecast Area
KCDA - Lyndonville, Vermont
Updated at 12:15 PM GMT on August 05, 2015 (8:15 AM EDT):
No NOTAM is currently available for this location.
Aviation Weather Maps